Time,TemperatureF,DewpointF,PressureIn,WindDirection,WindDirectionDegrees,WindSpeedMPH,WindSpeedGustMPH,Humidity,HourlyPrecipIn,Conditions,Clouds,dailyrainin,SoftwareType,DateUTC
2013-07-30 00:16:00,70.4,66.0,30.14,SW,226,0.0,2.0,87,0.00,,,0.00,weatherlink.com 1.10,2013-07-30 04:16:00,
2013-07-30 00:31:00,70.3,66.0,30.14,SW,226,0.0,0.0,87,0.00,,,0.00,weatherlink.com 1.10,2013-07-30 04:31:00,
2013-07-30 00:46:00,69.9,66.0,30.14,SW,226,0.0,0.0,86,0.00,,,0.00,weatherlink.com 1.10,2013-07-30 04:46:00,
2013-07-30 01:01:00,69.5,65.0,30.15,SW,225,0.0,1.0,85,0.00,,,0.00,weatherlink.com 1.10,2013-07-30 05:01:00,
2013-07-30 01:16:00,69.1,65.0,30.15,SW,225,0.0,1.0,85,0.00,,,0.00,weatherlink.com 1.10,2013-07-30 05:16:00,
2013-07-30 01:31:00,68.8,64.0,30.15,SW,225,0.0,0.0,84,0.00,,,0.00,weatherlink.com 1.10,2013-07-30 05:31:00,
2013-07-30 01:46:00,68.4,64.0,30.15,SW,225,0.0,0.0,85,0.00,,,0.00,weatherlink.com 1.10,2013-07-30 05:46:00,
2013-07-30 02:01:00,67.9,64.0,30.15,SW,225,0.0,0.0,86,0.00,,,0.00,weatherlink.com 1.10,2013-07-30 06:01:00,
2013-07-30 02:16:00,67.6,64.0,30.14,SW,225,0.0,0.0,88,0.00,,,0.00,weatherlink.com 1.10,2013-07-30 06:16:00,
2013-07-30 02:31:00,67.0,64.0,30.14,SW,225,0.0,0.0,89,0.00,,,0.00,weatherlink.com 1.10,2013-07-30 06:31:00,
2013-07-30 02:46:00,66.5,63.0,30.14,SW,225,0.0,0.0,89,0.00,,,0.00,weatherlink.com 1.10,2013-07-30 06:46:00,
2013-07-30 03:16:00,65.7,63.0,30.14,SW,225,0.0,0.0,91,0.00,,,0.00,weatherlink.com 1.10,2013-07-30 07:16:00,
2013-07-30 03:46:00,65.1,63.0,30.14,SW,225,0.0,0.0,91,0.00,,,0.00,weatherlink.com 1.10,2013-07-30 07:46:00,
2013-07-30 04:01:00,64.8,63.0,30.14,SW,225,0.0,0.0,93,0.00,,,0.00,weatherlink.com 1.10,2013-07-30 08:01:00,
2013-07-30 04:16:00,64.5,63.0,30.14,SW,225,0.0,0.0,94,0.00,,,0.00,weatherlink.com 1.10,2013-07-30 08:16:00,
2013-07-30 04:31:00,64.2,63.0,30.15,SW,225,0.0,0.0,94,0.00,,,0.00,weatherlink.com 1.10,2013-07-30 08:31:00,
2013-07-30 04:46:00,63.9,62.0,30.15,SW,225,0.0,0.0,94,0.00,,,0.00,weatherlink.com 1.10,2013-07-30 08:46:00,
2013-07-30 05:01:00,63.6,62.0,30.15,SW,225,0.0,0.0,94,0.00,,,0.00,weatherlink.com 1.10,2013-07-30 09:01:00,
2013-07-30 05:16:00,63.5,62.0,30.15,SW,225,0.0,0.0,95,0.00,,,0.00,weatherlink.com 1.10,2013-07-30 09:16:00,
2013-07-30 05:31:00,63.4,62.0,30.16,SW,225,0.0,0.0,95,0.00,,,0.00,weatherlink.com 1.10,2013-07-30 09:31:00,
2013-07-30 05:46:00,63.2,62.0,30.16,SW,225,0.0,0.0,96,0.00,,,0.00,weatherlink.com 1.10,2013-07-30 09:46:00,
2013-07-30 06:01:00,63.1,62.0,30.17,SW,225,0.0,0.0,96,0.00,,,0.00,weatherlink.com 1.10,2013-07-30 10:01:00,
2013-07-30 06:16:00,63.1,62.0,30.17,SW,225,0.0,0.0,96,0.00,,,0.00,weatherlink.com 1.10,2013-07-30 10:16:00,
2013-07-30 06:31:00,62.9,62.0,30.18,SW,225,0.0,0.0,96,0.00,,,0.00,weatherlink.com 1.10,2013-07-30 10:31:00,
2013-07-30 06:46:00,62.8,62.0,30.18,SW,225,0.0,0.0,96,0.00,,,0.00,weatherlink.com 1.10,2013-07-30 10:46:00,
2013-07-30 07:01:00,62.8,62.0,30.18,SW,225,0.0,0.0,96,0.00,,,0.00,weatherlink.com 1.10,2013-07-30 11:01:00,
2013-07-30 07:16:00,62.9,62.0,30.18,WSW,245,0.0,1.0,96,0.00,,,0.00,weatherlink.com 1.10,2013-07-30 11:16:00,
2013-07-30 07:31:00,63.4,62.0,30.18,WSW,245,0.0,1.0,96,0.00,,,0.00,weatherlink.com 1.10,2013-07-30 11:31:00,
2013-07-30 07:47:00,65.0,63.0,30.19,WSW,253,0.0,2.0,92,0.00,,,0.00,weatherlink.com 1.10,2013-07-30 11:47:00,
2013-07-30 08:01:00,66.8,63.0,30.20,West,278,0.0,3.0,88,0.00,,,0.00,weatherlink.com 1.10,2013-07-30 12:01:00,
2013-07-30 08:17:00,68.7,64.0,30.20,SW,236,1.0,3.0,85,0.00,,,0.00,weatherlink.com 1.10,2013-07-30 12:17:00,
2013-07-30 08:32:00,70.0,64.0,30.20,WSW,245,1.0,5.0,82,0.00,,,0.00,weatherlink.com 1.10,2013-07-30 12:32:00,
2013-07-30 08:47:00,71.1,65.0,30.20,West,264,0.0,4.0,80,0.00,,,0.00,weatherlink.com 1.10,2013-07-30 12:47:00,
2013-07-30 09:02:00,72.0,65.0,30.21,WSW,243,1.0,4.0,78,0.00,,,0.00,weatherlink.com 1.10,2013-07-30 13:02:00,
2013-07-30 09:17:00,72.6,65.0,30.21,WNW,288,1.0,7.0,78,0.00,,,0.00,weatherlink.com 1.10,2013-07-30 13:17:00,
2013-07-30 09:32:00,73.2,66.0,30.21,NNW,342,1.0,7.0,77,0.00,,,0.00,weatherlink.com 1.10,2013-07-30 13:32:00,
2013-07-30 09:47:00,74.0,67.0,30.21,SW,231,3.0,5.0,78,0.00,,,0.00,weatherlink.com 1.10,2013-07-30 13:47:00,
2013-07-30 10:02:00,74.7,67.0,30.21,WSW,249,2.0,5.0,76,0.00,,,0.00,weatherlink.com 1.10,2013-07-30 14:02:00,
2013-07-30 10:17:00,75.5,67.0,30.21,West,264,5.0,8.0,76,0.00,,,0.00,weatherlink.com 1.10,2013-07-30 14:17:00,
2013-07-30 10:32:00,76.0,68.0,30.20,West,273,2.0,6.0,76,0.00,,,0.00,weatherlink.com 1.10,2013-07-30 14:32:00,
2013-07-30 11:02:00,77.2,69.0,30.20,North,352,1.0,7.0,75,0.00,,,0.00,weatherlink.com 1.10,2013-07-30 15:02:00,
2013-07-30 11:17:00,77.8,69.0,30.20,WNW,295,2.0,4.0,75,0.00,,,0.00,weatherlink.com 1.10,2013-07-30 15:17:00,
2013-07-30 11:32:00,78.4,70.0,30.20,West,274,2.0,9.0,74,0.00,,,0.00,weatherlink.com 1.10,2013-07-30 15:32:00,
2013-07-30 11:47:00,79.1,70.0,30.20,NW,311,1.0,6.0,74,0.00,,,0.00,weatherlink.com 1.10,2013-07-30 15:47:00,
2013-07-30 12:02:00,79.7,70.0,30.20,West,261,4.0,5.0,73,0.00,,,0.00,weatherlink.com 1.10,2013-07-30 16:02:00,
2013-07-30 12:17:00,80.7,71.0,30.19,WSW,257,2.0,7.0,71,0.00,,,0.00,weatherlink.com 1.10,2013-07-30 16:17:00,
2013-07-30 12:32:00,80.4,71.0,30.19,WNW,286,0.0,5.0,72,0.00,,,0.00,weatherlink.com 1.10,2013-07-30 16:32:00,
2013-07-30 12:47:00,80.8,71.0,30.19,West,274,1.0,4.0,72,0.00,,,0.00,weatherlink.com 1.10,2013-07-30 16:47:00,
2013-07-30 13:02:00,81.0,72.0,30.18,WNW,297,1.0,3.0,73,0.00,,,0.00,weatherlink.com 1.10,2013-07-30 17:02:00,
2013-07-30 13:17:00,81.9,71.0,30.18,NE,49,2.0,2.0,70,0.00,,,0.00,weatherlink.com 1.10,2013-07-30 17:17:00,
2013-07-30 13:32:00,82.8,72.0,30.18,NNE,32,0.0,2.0,70,0.00,,,0.00,weatherlink.com 1.10,2013-07-30 17:32:00,
2013-07-30 13:48:00,82.8,72.0,30.17,NW,305,0.0,4.0,69,0.00,,,0.00,weatherlink.com 1.10,2013-07-30 17:48:00,
2013-07-30 14:02:00,82.9,71.0,30.17,NW,307,0.0,3.0,68,0.00,,,0.00,weatherlink.com 1.10,2013-07-30 18:02:00,
2013-07-30 14:18:00,83.0,72.0,30.16,WNW,303,0.0,3.0,69,0.00,,,0.00,weatherlink.com 1.10,2013-07-30 18:18:00,
2013-07-30 14:33:00,83.4,72.0,30.16,WNW,293,0.0,3.0,69,0.00,,,0.00,weatherlink.com 1.10,2013-07-30 18:33:00,
2013-07-30 14:48:00,84.1,73.0,30.16,ENE,59,0.0,2.0,69,0.00,,,0.00,weatherlink.com 1.10,2013-07-30 18:48:00,
2013-07-30 15:03:00,85.0,72.0,30.15,NW,304,0.0,5.0,65,0.00,,,0.00,weatherlink.com 1.10,2013-07-30 19:03:00,
2013-07-30 15:18:00,84.8,72.0,30.15,West,268,0.0,3.0,66,0.00,,,0.00,weatherlink.com 1.10,2013-07-30 19:18:00,
2013-07-30 15:33:00,85.5,71.0,30.14,NE,53,0.0,2.0,62,0.00,,,0.00,weatherlink.com 1.10,2013-07-30 19:33:00,
2013-07-30 15:48:00,86.3,70.0,30.14,SE,130,0.0,2.0,58,0.00,,,0.00,weatherlink.com 1.10,2013-07-30 19:48:00,
2013-07-30 16:03:00,86.6,72.0,30.14,WSW,245,1.0,5.0,63,0.00,,,0.00,weatherlink.com 1.10,2013-07-30 20:03:00,
2013-07-30 16:18:00,88.2,72.0,30.13,ESE,115,0.0,2.0,59,0.00,,,0.00,weatherlink.com 1.10,2013-07-30 20:18:00,
2013-07-30 16:33:00,87.2,70.0,30.13,WNW,296,1.0,3.0,57,0.00,,,0.00,weatherlink.com 1.10,2013-07-30 20:33:00,
2013-07-30 16:48:00,87.2,70.0,30.12,West,270,0.0,2.0,57,0.00,,,0.00,weatherlink.com 1.10,2013-07-30 20:48:00,
2013-07-30 17:03:00,86.3,70.0,30.12,WNW,282,1.0,2.0,58,0.00,,,0.00,weatherlink.com 1.10,2013-07-30 21:03:00,
2013-07-30 17:18:00,85.9,70.0,30.12,NW,309,0.0,3.0,60,0.00,,,0.00,weatherlink.com 1.10,2013-07-30 21:18:00,
2013-07-30 17:33:00,85.5,70.0,30.13,West,274,1.0,4.0,60,0.00,,,0.00,weatherlink.com 1.10,2013-07-30 21:33:00,
2013-07-30 17:48:00,85.0,70.0,30.12,NW,319,0.0,5.0,62,0.00,,,0.00,weatherlink.com 1.10,2013-07-30 21:48:00,
2013-07-30 18:03:00,84.7,72.0,30.13,NNW,347,0.0,1.0,66,0.00,,,0.00,weatherlink.com 1.10,2013-07-30 22:03:00,
2013-07-30 18:18:00,84.7,72.0,30.13,ESE,115,1.0,2.0,65,0.00,,,0.00,weatherlink.com 1.10,2013-07-30 22:18:00,
2013-07-30 18:33:00,83.6,72.0,30.12,NNW,347,0.0,3.0,67,0.00,,,0.00,weatherlink.com 1.10,2013-07-30 22:33:00,
2013-07-30 18:48:00,83.0,71.0,30.12,NE,50,0.0,1.0,68,0.00,,,0.00,weatherlink.com 1.10,2013-07-30 22:48:00,
2013-07-30 19:03:00,82.6,70.0,30.11,ENE,65,0.0,1.0,66,0.00,,,0.00,weatherlink.com 1.10,2013-07-30 23:03:00,
2013-07-30 19:18:00,82.3,70.0,30.12,North,1,0.0,2.0,67,0.00,,,0.00,weatherlink.com 1.10,2013-07-30 23:18:00,
2013-07-30 19:33:00,81.9,71.0,30.12,North,360,0.0,0.0,70,0.00,,,0.00,weatherlink.com 1.10,2013-07-30 23:33:00,
2013-07-30 19:48:00,81.3,71.0,30.12,North,360,0.0,0.0,71,0.00,,,0.00,weatherlink.com 1.10,2013-07-30 23:48:00,
2013-07-30 20:03:00,80.6,70.0,30.12,North,360,0.0,0.0,71,0.00,,,0.00,weatherlink.com 1.10,2013-07-31 00:03:00,
2013-07-30 20:18:00,79.7,71.0,30.12,North,360,0.0,0.0,75,0.00,,,0.00,weatherlink.com 1.10,2013-07-31 00:18:00,
2013-07-30 20:33:00,78.7,71.0,30.13,North,360,0.0,0.0,78,0.00,,,0.00,weatherlink.com 1.10,2013-07-31 00:33:00,
2013-07-30 20:48:00,77.8,71.0,30.13,North,360,0.0,0.0,80,0.00,,,0.00,weatherlink.com 1.10,2013-07-31 00:48:00,
2013-07-30 21:03:00,76.9,71.0,30.13,North,360,0.0,0.0,82,0.00,,,0.00,weatherlink.com 1.10,2013-07-31 01:03:00,
2013-07-30 21:18:00,76.2,71.0,30.13,North,360,0.0,0.0,84,0.00,,,0.00,weatherlink.com 1.10,2013-07-31 01:18:00,
2013-07-30 21:33:00,75.6,72.0,30.14,North,360,0.0,0.0,87,0.00,,,0.00,weatherlink.com 1.10,2013-07-31 01:33:00,
2013-07-30 21:48:00,75.1,72.0,30.15,North,360,0.0,0.0,89,0.00,,,0.00,weatherlink.com 1.10,2013-07-31 01:48:00,
2013-07-30 22:03:00,74.8,72.0,30.15,North,360,0.0,0.0,91,0.00,,,0.00,weatherlink.com 1.10,2013-07-31 02:03:00,
2013-07-30 22:18:00,75.1,72.0,30.15,North,360,0.0,0.0,90,0.00,,,0.00,weatherlink.com 1.10,2013-07-31 02:18:00,
2013-07-30 22:33:00,75.3,72.0,30.15,North,360,0.0,0.0,89,0.00,,,0.00,weatherlink.com 1.10,2013-07-31 02:33:00,
2013-07-30 22:58:00,75.2,72.0,30.16,North,360,0.0,0.0,90,0.00,,,0.00,weatherlink.com 1.10,2013-07-31 02:58:00,
2013-07-30 23:03:00,75.1,72.0,30.16,North,360,0.0,0.0,91,0.00,,,0.00,weatherlink.com 1.10,2013-07-31 03:03:00,
2013-07-30 23:18:00,74.8,72.0,30.16,North,360,0.0,0.0,91,0.00,,,0.00,weatherlink.com 1.10,2013-07-31 03:18:00,
2013-07-30 23:33:00,74.5,72.0,30.15,North,360,0.0,0.0,92,0.00,,,0.00,weatherlink.com 1.10,2013-07-31 03:33:00,
2013-07-30 23:48:00,74.2,72.0,30.16,North,360,0.0,0.0,93,0.00,,,0.00,weatherlink.com 1.10,2013-07-31 03:48:00,